createdAt,value
2022-11-27T00:00:47.818Z,1024.88
2022-11-27T00:01:47.797Z,1024.90
2022-11-27T00:02:47.912Z,1024.91
2022-11-27T00:03:48.049Z,1024.91
2022-11-27T00:04:47.770Z,1024.90
2022-11-27T00:05:47.798Z,1024.90
2022-11-27T00:06:47.784Z,1024.91
2022-11-27T00:07:47.866Z,1024.91
2022-11-27T00:08:47.739Z,1024.92
2022-11-27T00:09:47.934Z,1024.92
2022-11-27T00:10:47.855Z,1024.93
2022-11-27T00:11:47.732Z,1024.93
2022-11-27T00:12:47.688Z,1024.90
2022-11-27T00:13:47.697Z,1024.90
2022-11-27T00:14:48.420Z,1024.90
2022-11-27T00:15:47.737Z,1024.88
2022-11-27T00:16:47.653Z,1024.89
2022-11-27T00:17:47.644Z,1024.87
2022-11-27T00:18:47.627Z,1024.84
2022-11-27T00:19:47.618Z,1024.82
2022-11-27T00:20:47.615Z,1024.81
2022-11-27T00:21:47.605Z,1024.80
2022-11-27T00:22:47.590Z,1024.78
2022-11-27T00:23:47.573Z,1024.78
2022-11-27T00:24:47.566Z,1024.78
2022-11-27T00:25:47.573Z,1024.78
2022-11-27T00:26:47.540Z,1024.79
2022-11-27T00:27:47.543Z,1024.80
2022-11-27T00:28:47.526Z,1024.81
2022-11-27T00:29:47.512Z,1024.81
2022-11-27T00:30:47.541Z,1024.81
2022-11-27T00:31:47.518Z,1024.79
2022-11-27T00:32:47.483Z,1024.78
2022-11-27T00:33:47.483Z,1024.78
2022-11-27T00:34:47.459Z,1024.77
2022-11-27T00:35:47.465Z,1024.75
2022-11-27T00:36:48.409Z,1024.75
2022-11-27T00:37:47.455Z,1024.75
2022-11-27T00:38:47.432Z,1024.75
2022-11-27T00:39:47.422Z,1024.75
2022-11-27T00:40:47.408Z,1024.76
2022-11-27T00:41:47.386Z,1024.78
2022-11-27T00:42:47.505Z,1024.78
2022-11-27T00:43:47.373Z,1024.79
2022-11-27T00:44:47.356Z,1024.79
2022-11-27T00:45:47.382Z,1024.81
2022-11-27T00:46:47.366Z,1024.82
2022-11-27T00:47:47.331Z,1024.82
2022-11-27T00:48:47.322Z,1024.82
2022-11-27T00:49:47.332Z,1024.83
2022-11-27T00:50:47.304Z,1024.83
2022-11-27T00:51:47.286Z,1024.82
2022-11-27T00:52:47.280Z,1024.81
2022-11-27T00:53:47.284Z,1024.76
2022-11-27T00:54:47.275Z,1024.75
2022-11-27T00:55:47.259Z,1024.73
2022-11-27T00:56:47.240Z,1024.71
2022-11-27T00:57:47.224Z,1024.70
2022-11-27T00:58:47.234Z,1024.69
2022-11-27T00:59:47.207Z,1024.70
2022-11-27T01:00:47.210Z,1024.71
2022-11-27T01:01:47.257Z,1024.72
2022-11-27T01:02:47.201Z,1024.75
2022-11-27T01:03:47.165Z,1024.75
2022-11-27T01:04:47.160Z,1024.76
2022-11-27T01:05:47.167Z,1024.76
2022-11-27T01:06:47.129Z,1024.76
2022-11-27T01:07:47.195Z,1024.75
2022-11-27T01:08:47.114Z,1024.73
2022-11-27T01:09:47.131Z,1024.71
2022-11-27T01:10:50.752Z,1024.71
2022-11-27T01:11:47.089Z,1024.70
2022-11-27T01:12:47.066Z,1024.70
2022-11-27T01:13:47.061Z,1024.70
2022-11-27T01:14:47.056Z,1024.72
2022-11-27T01:15:47.103Z,1024.73
2022-11-27T01:16:47.024Z,1024.73
2022-11-27T01:17:47.019Z,1024.72
2022-11-27T01:18:47.022Z,1024.71
2022-11-27T01:19:46.993Z,1024.71
2022-11-27T01:20:46.998Z,1024.69
2022-11-27T01:21:46.983Z,1024.66
2022-11-27T01:22:46.979Z,1024.64
2022-11-27T01:23:46.957Z,1024.61
2022-11-27T01:24:46.939Z,1024.57
2022-11-27T01:25:46.965Z,1024.55
2022-11-27T01:26:46.930Z,1024.53
2022-11-27T01:27:46.924Z,1024.53
2022-11-27T01:28:46.900Z,1024.54
2022-11-27T01:29:46.906Z,1024.55
2022-11-27T01:30:46.935Z,1024.55
2022-11-27T01:31:46.914Z,1024.53
2022-11-27T01:32:46.879Z,1024.53
2022-11-27T01:33:46.868Z,1024.54
2022-11-27T01:34:46.840Z,1024.55
2022-11-27T01:35:46.899Z,1024.55
2022-11-27T01:36:46.818Z,1024.57
2022-11-27T01:37:46.827Z,1024.57
2022-11-27T01:38:46.800Z,1024.57
2022-11-27T01:39:46.795Z,1024.57
2022-11-27T01:40:47.245Z,1024.56
2022-11-27T01:41:46.792Z,1024.54
2022-11-27T01:42:46.761Z,1024.51
2022-11-27T01:43:46.760Z,1024.49
2022-11-27T01:44:46.751Z,1024.48
2022-11-27T01:45:46.768Z,1024.46
2022-11-27T01:46:46.788Z,1024.43
2022-11-27T01:47:46.784Z,1024.40
2022-11-27T01:48:46.696Z,1024.38
2022-11-27T01:49:46.694Z,1024.35
2022-11-27T01:50:46.702Z,1024.32
2022-11-27T01:51:46.673Z,1024.29
2022-11-27T01:52:46.655Z,1024.24
2022-11-27T01:53:46.645Z,1024.21
2022-11-27T01:54:46.680Z,1024.19
2022-11-27T01:55:46.649Z,1024.18
2022-11-27T01:56:46.620Z,1024.16
2022-11-27T01:57:46.611Z,1024.15
2022-11-27T01:58:46.604Z,1024.14
2022-11-27T01:59:46.597Z,1024.13
2022-11-27T02:00:46.581Z,1024.12
2022-11-27T02:01:46.600Z,1024.12
2022-11-27T02:02:46.625Z,1024.11
2022-11-27T02:03:46.552Z,1024.11
2022-11-27T02:07:27.518Z,1024.11
2022-11-27T02:08:10.015Z,1024.11
2022-11-27T02:09:10.002Z,1024.12
2022-11-27T02:10:10.630Z,1024.12
2022-11-27T02:11:09.993Z,1024.11
2022-11-27T02:12:09.983Z,1024.10
2022-11-27T02:13:09.972Z,1024.09
2022-11-27T02:14:09.954Z,1024.07
2022-11-27T02:15:09.935Z,1024.07
2022-11-27T02:16:13.790Z,1024.06
2022-11-27T02:17:09.924Z,1024.05
2022-11-27T02:18:09.934Z,1024.03
2022-11-27T02:19:09.900Z,1024.02
2022-11-27T02:20:09.896Z,1024.00
2022-11-27T02:21:09.898Z,1023.98
2022-11-27T02:22:09.872Z,1023.97
2022-11-27T02:23:09.858Z,1023.96
2022-11-27T02:24:09.852Z,1023.97
2022-11-27T02:25:09.841Z,1023.97
2022-11-27T02:26:09.849Z,1023.98
2022-11-27T02:27:09.811Z,1023.99
2022-11-27T02:28:09.824Z,1023.99
2022-11-27T02:29:09.834Z,1023.99
2022-11-27T02:30:09.873Z,1023.98
2022-11-27T02:31:09.883Z,1023.98
2022-11-27T02:32:09.774Z,1023.98
2022-11-27T02:33:09.778Z,1023.98
2022-11-27T02:34:09.807Z,1024.01
2022-11-27T02:35:09.730Z,1024.02
2022-11-27T02:36:09.755Z,1024.04
2022-11-27T02:37:09.724Z,1024.06
2022-11-27T02:38:09.701Z,1024.04
2022-11-27T02:39:09.705Z,1024.06
2022-11-27T02:40:09.678Z,1024.05
2022-11-27T02:41:09.686Z,1024.04
2022-11-27T02:42:09.660Z,1024.03
2022-11-27T02:43:09.647Z,1024.02
2022-11-27T02:44:09.644Z,1024.02
2022-11-27T02:45:09.624Z,1024.03
2022-11-27T02:46:09.732Z,1024.04
2022-11-27T02:47:09.604Z,1024.05
2022-11-27T02:48:09.601Z,1024.06
2022-11-27T02:49:09.583Z,1024.08
2022-11-27T02:50:09.612Z,1024.08
2022-11-27T02:51:09.595Z,1024.08
2022-11-27T02:52:09.560Z,1024.08
2022-11-27T02:53:09.545Z,1024.07
2022-11-27T02:54:09.550Z,1024.06
2022-11-27T02:55:09.542Z,1024.06
2022-11-27T02:56:09.525Z,1024.05
2022-11-27T02:57:09.502Z,1024.04
2022-11-27T02:58:09.505Z,1024.03
2022-11-27T02:59:09.497Z,1024.04
2022-11-27T03:00:09.476Z,1024.03
2022-11-27T03:01:09.491Z,1024.02
2022-11-27T03:02:09.527Z,1024.00
2022-11-27T03:03:09.522Z,1023.99
2022-11-27T03:04:09.430Z,1023.98
2022-11-27T03:05:09.411Z,1023.97
2022-11-27T03:06:09.429Z,1023.97
2022-11-27T03:07:09.400Z,1023.99
2022-11-27T03:08:09.397Z,1023.99
2022-11-27T03:09:09.405Z,1023.98
2022-11-27T03:10:09.368Z,1023.97
2022-11-27T03:11:09.365Z,1023.96
2022-11-27T03:12:09.342Z,1023.96
2022-11-27T03:13:09.338Z,1023.96
2022-11-27T03:14:09.326Z,1023.94
2022-11-27T03:15:09.356Z,1023.93
2022-11-27T03:16:09.390Z,1023.90
2022-11-27T03:17:09.317Z,1023.89
2022-11-27T03:18:09.297Z,1023.89
2022-11-27T03:19:09.274Z,1023.90
2022-11-27T03:20:09.256Z,1023.92
2022-11-27T03:21:09.271Z,1023.93
2022-11-27T03:22:09.247Z,1023.95
2022-11-27T03:23:09.225Z,1023.94
2022-11-27T03:24:09.240Z,1023.94
2022-11-27T03:25:09.228Z,1023.93
2022-11-27T03:26:09.218Z,1023.94
2022-11-27T03:27:09.190Z,1023.95
2022-11-27T03:28:09.187Z,1023.97
2022-11-27T03:29:09.163Z,1023.99
2022-11-27T03:30:09.171Z,1024.00
2022-11-27T03:31:09.288Z,1024.00
2022-11-27T03:32:09.136Z,1024.01
2022-11-27T03:33:09.133Z,1024.00
2022-11-27T03:34:09.148Z,1023.99
2022-11-27T03:35:09.101Z,1024.00
2022-11-27T03:36:09.116Z,1024.01
2022-11-27T03:37:09.077Z,1024.02
2022-11-27T03:38:09.074Z,1024.00
2022-11-27T03:39:09.068Z,1024.00
2022-11-27T03:40:09.053Z,1024.01
2022-11-27T03:41:09.062Z,1024.02
2022-11-27T03:42:09.028Z,1024.02
2022-11-27T03:43:09.040Z,1024.02
2022-11-27T03:44:09.018Z,1024.01
2022-11-27T03:45:09.010Z,1024.01
2022-11-27T03:46:09.070Z,1024.00
2022-11-27T03:47:09.028Z,1024.00
2022-11-27T03:48:08.968Z,1023.99
2022-11-27T03:49:08.954Z,1023.97
2022-11-27T03:50:08.956Z,1023.97
2022-11-27T03:51:08.950Z,1023.98
2022-11-27T03:52:08.941Z,1023.97
2022-11-27T03:53:08.910Z,1023.96
2022-11-27T03:54:08.907Z,1023.95
2022-11-27T03:55:08.895Z,1023.94
2022-11-27T03:56:10.371Z,1023.95
2022-11-27T03:57:08.871Z,1023.92
2022-11-27T03:58:08.868Z,1023.92
2022-11-27T03:59:08.861Z,1023.94
2022-11-27T04:00:08.843Z,1023.94
2022-11-27T04:01:08.842Z,1023.93
2022-11-27T04:02:08.984Z,1023.94
2022-11-27T04:03:08.820Z,1023.93
2022-11-27T04:04:08.968Z,1023.93
2022-11-27T04:05:08.784Z,1023.92
2022-11-27T04:06:08.790Z,1023.92
2022-11-27T04:07:08.762Z,1023.93
2022-11-27T04:08:08.765Z,1023.92
2022-11-27T04:09:08.753Z,1023.91
2022-11-27T04:10:08.745Z,1023.89
2022-11-27T04:11:08.756Z,1023.89
2022-11-27T04:12:08.717Z,1023.89
2022-11-27T04:13:08.716Z,1023.90
2022-11-27T04:14:08.727Z,1023.90
2022-11-27T04:15:08.684Z,1023.89
2022-11-27T04:16:08.743Z,1023.91
2022-11-27T04:17:08.660Z,1023.93
2022-11-27T04:18:08.665Z,1023.95
2022-11-27T04:19:08.646Z,1023.95
2022-11-27T04:20:08.633Z,1023.94
2022-11-27T04:21:08.643Z,1023.96
2022-11-27T04:22:08.624Z,1023.96
2022-11-27T04:23:08.602Z,1023.97
2022-11-27T04:24:08.606Z,1023.97
2022-11-27T04:25:08.586Z,1023.96
2022-11-27T04:26:08.604Z,1023.96
2022-11-27T04:27:08.564Z,1023.96
2022-11-27T04:28:08.557Z,1023.95
2022-11-27T04:29:08.542Z,1023.94
2022-11-27T04:30:08.528Z,1023.96
2022-11-27T04:31:08.576Z,1023.98
2022-11-27T04:32:08.529Z,1023.97
2022-11-27T04:33:08.496Z,1023.97
2022-11-27T04:34:08.501Z,1023.97
2022-11-27T04:35:08.477Z,1023.96
2022-11-27T04:36:08.486Z,1023.98
2022-11-27T04:37:08.459Z,1024.01
2022-11-27T04:38:08.491Z,1024.00
2022-11-27T04:39:08.440Z,1023.99
2022-11-27T04:40:08.490Z,1023.98
2022-11-27T04:41:08.424Z,1023.98
2022-11-27T04:42:08.405Z,1023.96
2022-11-27T04:43:08.414Z,1023.95
2022-11-27T04:44:08.401Z,1023.95
2022-11-27T04:45:08.365Z,1023.95
2022-11-27T04:46:08.430Z,1023.95
2022-11-27T04:47:08.348Z,1023.95
2022-11-27T04:48:08.342Z,1023.95
2022-11-27T04:49:08.335Z,1023.96
2022-11-27T04:50:08.343Z,1023.98
2022-11-27T04:51:08.321Z,1023.99
2022-11-27T04:52:08.296Z,1024.00
2022-11-27T04:53:08.282Z,1024.00
2022-11-27T04:54:08.286Z,1024.01
2022-11-27T04:55:08.275Z,1024.02
2022-11-27T04:56:08.274Z,1024.02
2022-11-27T04:57:08.252Z,1024.06
2022-11-27T04:58:08.228Z,1024.06
2022-11-27T04:59:08.232Z,1024.04
2022-11-27T05:00:08.231Z,1024.04
2022-11-27T05:01:08.323Z,1024.03
2022-11-27T05:02:08.193Z,1023.99
2022-11-27T05:03:08.310Z,1023.96
2022-11-27T05:04:08.170Z,1023.97
2022-11-27T05:05:08.174Z,1023.98
2022-11-27T05:06:08.485Z,1023.99
2022-11-27T05:07:08.163Z,1023.99
2022-11-27T05:08:08.151Z,1023.98
2022-11-27T05:09:08.124Z,1023.96
2022-11-27T05:10:08.116Z,1023.96
2022-11-27T05:11:08.113Z,1023.96
2022-11-27T05:12:08.085Z,1023.95
2022-11-27T05:13:08.085Z,1023.94
2022-11-27T05:14:08.071Z,1023.92
2022-11-27T05:15:08.067Z,1023.92
2022-11-27T05:16:08.200Z,1023.92
2022-11-27T05:17:08.037Z,1023.92
2022-11-27T05:18:08.046Z,1023.92
2022-11-27T05:19:08.026Z,1023.92
2022-11-27T05:20:08.010Z,1023.94
2022-11-27T05:21:08.022Z,1023.94
2022-11-27T05:22:07.997Z,1023.94
2022-11-27T05:23:07.972Z,1023.93
2022-11-27T05:24:07.966Z,1023.94
2022-11-27T05:25:07.970Z,1023.92
2022-11-27T05:26:07.958Z,1023.92
2022-11-27T05:27:07.964Z,1023.93
2022-11-27T05:28:07.917Z,1023.95
2022-11-27T05:29:07.916Z,1023.94
2022-11-27T05:30:07.916Z,1023.96
2022-11-27T05:31:07.966Z,1023.97
2022-11-27T05:32:07.944Z,1023.99
2022-11-27T05:33:07.870Z,1023.99
2022-11-27T05:34:07.866Z,1024.00
2022-11-27T05:35:07.857Z,1023.98
2022-11-27T05:36:07.847Z,1023.97
2022-11-27T05:37:07.848Z,1023.95
2022-11-27T05:38:07.820Z,1023.93
2022-11-27T05:39:07.814Z,1023.92
2022-11-27T05:40:07.818Z,1023.91
2022-11-27T05:41:07.794Z,1023.91
2022-11-27T05:42:07.783Z,1023.91
2022-11-27T05:43:07.800Z,1023.92
2022-11-27T05:44:07.790Z,1023.94
2022-11-27T05:45:07.743Z,1023.96
2022-11-27T05:46:07.732Z,1023.97
2022-11-27T05:47:16.445Z,1023.97
2022-11-27T05:48:07.750Z,1023.98
2022-11-27T05:49:07.725Z,1023.97
2022-11-27T05:50:07.691Z,1023.97
2022-11-27T05:51:07.686Z,1023.95
2022-11-27T05:52:07.700Z,1023.95
2022-11-27T05:53:07.739Z,1023.97
2022-11-27T05:54:07.695Z,1023.97
2022-11-27T05:55:07.663Z,1023.96
2022-11-27T05:56:07.714Z,1023.96
2022-11-27T05:57:07.650Z,1023.97
2022-11-27T05:58:07.699Z,1023.97
2022-11-27T05:59:07.616Z,1023.96
2022-11-27T06:00:07.593Z,1023.96
2022-11-27T06:01:07.603Z,1023.95
2022-11-27T06:02:07.780Z,1023.94
2022-11-27T06:03:07.675Z,1023.91
2022-11-27T06:04:07.541Z,1023.89
2022-11-27T06:05:07.568Z,1023.88
2022-11-27T06:06:07.626Z,1023.86
2022-11-27T06:07:07.652Z,1023.85
2022-11-27T06:08:07.521Z,1023.84
2022-11-27T06:09:12.516Z,1023.82
2022-11-27T06:10:07.525Z,1023.80
2022-11-27T06:11:07.533Z,1023.78
2022-11-27T06:12:07.531Z,1023.75
2022-11-27T06:13:07.465Z,1023.72
2022-11-27T06:14:07.453Z,1023.70
2022-11-27T06:15:07.410Z,1023.69
2022-11-27T06:16:07.446Z,1023.67
2022-11-27T06:17:07.393Z,1023.65
2022-11-27T06:18:07.355Z,1023.64
2022-11-27T06:19:07.389Z,1023.63
2022-11-27T06:20:07.337Z,1023.62
2022-11-27T06:21:07.321Z,1023.63
2022-11-27T06:22:07.318Z,1023.63
2022-11-27T06:23:07.313Z,1023.62
2022-11-27T06:24:07.305Z,1023.60
2022-11-27T06:25:07.287Z,1023.59
2022-11-27T06:26:07.333Z,1023.58
2022-11-27T06:27:07.301Z,1023.58
2022-11-27T06:28:07.238Z,1023.57
2022-11-27T06:29:07.272Z,1023.57
2022-11-27T06:30:07.220Z,1023.57
2022-11-27T06:31:07.270Z,1023.57
2022-11-27T06:32:07.300Z,1023.57
2022-11-27T06:33:07.227Z,1023.58
2022-11-27T06:34:07.233Z,1023.59
2022-11-27T06:35:07.187Z,1023.61
2022-11-27T06:36:07.214Z,1023.62
2022-11-27T06:37:12.902Z,1023.63
2022-11-27T06:38:07.226Z,1023.65
2022-11-27T06:39:07.135Z,1023.66
2022-11-27T06:40:07.155Z,1023.66
2022-11-27T06:41:07.136Z,1023.66
2022-11-27T06:42:07.157Z,1023.67
2022-11-27T06:43:07.121Z,1023.66
2022-11-27T06:44:07.102Z,1023.64
2022-11-27T06:45:07.125Z,1023.65
2022-11-27T06:46:07.163Z,1023.64
2022-11-27T06:47:07.088Z,1023.62
2022-11-27T06:48:07.046Z,1023.60
2022-11-27T06:49:07.049Z,1023.59
2022-11-27T06:50:07.032Z,1023.60
2022-11-27T06:51:07.048Z,1023.60
2022-11-27T06:52:07.003Z,1023.61
2022-11-27T06:53:06.992Z,1023.62
2022-11-27T06:54:06.966Z,1023.64
2022-11-27T06:55:06.980Z,1023.66
2022-11-27T06:56:06.982Z,1023.65
2022-11-27T06:57:06.985Z,1023.64
2022-11-27T06:58:06.934Z,1023.66
2022-11-27T06:59:06.918Z,1023.68
2022-11-27T07:00:06.918Z,1023.69
2022-11-27T07:01:06.945Z,1023.71
2022-11-27T07:02:06.962Z,1023.71
2022-11-27T07:03:06.886Z,1023.70
2022-11-27T07:04:06.882Z,1023.70
2022-11-27T07:05:06.887Z,1023.71
2022-11-27T07:06:06.841Z,1023.71
2022-11-27T07:07:06.844Z,1023.71
2022-11-27T07:08:06.851Z,1023.71
2022-11-27T07:09:06.825Z,1023.71
2022-11-27T07:10:06.811Z,1023.72
2022-11-27T07:11:06.841Z,1023.72
2022-11-27T07:12:06.814Z,1023.72
2022-11-27T07:13:06.813Z,1023.70
2022-11-27T07:14:06.828Z,1023.68
2022-11-27T07:15:06.764Z,1023.66
2022-11-27T07:16:06.814Z,1023.64
2022-11-27T07:17:06.751Z,1023.61
2022-11-27T07:18:06.775Z,1023.58
2022-11-27T07:19:06.707Z,1023.55
2022-11-27T07:20:06.711Z,1023.52
2022-11-27T07:21:06.695Z,1023.49
2022-11-27T07:22:06.697Z,1023.47
2022-11-27T07:23:06.672Z,1023.45
2022-11-27T07:24:06.661Z,1023.44
2022-11-27T07:25:06.663Z,1023.45
2022-11-27T07:26:06.656Z,1023.45
2022-11-27T07:27:06.663Z,1023.45
2022-11-27T07:28:06.610Z,1023.46
2022-11-27T07:29:06.620Z,1023.46
2022-11-27T07:30:06.594Z,1023.47
2022-11-27T07:31:06.647Z,1023.49
2022-11-27T07:32:06.680Z,1023.50
2022-11-27T07:33:06.591Z,1023.50
2022-11-27T07:34:09.919Z,1023.49
2022-11-27T07:35:06.606Z,1023.49
2022-11-27T07:36:06.546Z,1023.49
2022-11-27T07:37:06.573Z,1023.50
2022-11-27T07:38:06.522Z,1023.49
2022-11-27T07:39:06.755Z,1023.48
2022-11-27T07:40:06.523Z,1023.47
2022-11-27T07:41:06.514Z,1023.44
2022-11-27T07:42:36.543Z,1023.41
2022-11-27T07:43:06.495Z,1023.38
2022-11-27T07:44:06.472Z,1023.37
2022-11-27T07:45:06.477Z,1023.36
2022-11-27T07:46:06.509Z,1023.37
2022-11-27T07:47:06.478Z,1023.37
2022-11-27T07:48:06.490Z,1023.35
2022-11-27T07:49:06.409Z,1023.35
2022-11-27T07:50:06.416Z,1023.35
2022-11-27T07:51:06.740Z,1023.35
2022-11-27T07:52:06.476Z,1023.33
2022-11-27T07:53:06.398Z,1023.31
2022-11-27T07:54:06.350Z,1023.30
2022-11-27T07:55:06.346Z,1023.28
2022-11-27T07:56:06.343Z,1023.27
2022-11-27T07:57:06.359Z,1023.24
2022-11-27T07:58:06.351Z,1023.22
2022-11-27T07:59:06.340Z,1023.21
2022-11-27T08:00:06.324Z,1023.21
2022-11-27T08:01:06.411Z,1023.19
2022-11-27T08:02:06.340Z,1023.21
2022-11-27T08:03:06.274Z,1023.23
2022-11-27T08:04:06.249Z,1023.23
2022-11-27T08:05:12.198Z,1023.23
2022-11-27T08:06:06.258Z,1023.25
2022-11-27T08:07:06.280Z,1023.24
2022-11-27T08:08:06.282Z,1023.24
2022-11-27T08:09:06.245Z,1023.24
2022-11-27T08:10:06.232Z,1023.25
2022-11-27T08:11:06.191Z,1023.25
2022-11-27T08:12:06.170Z,1023.24
2022-11-27T08:13:06.173Z,1023.27
2022-11-27T08:14:06.157Z,1023.27
2022-11-27T08:15:06.135Z,1023.27
2022-11-27T08:16:06.174Z,1023.27
2022-11-27T08:17:06.151Z,1023.26
2022-11-27T08:18:06.124Z,1023.25
2022-11-27T08:19:06.191Z,1023.24
2022-11-27T08:20:06.082Z,1023.21
2022-11-27T08:21:06.102Z,1023.18
2022-11-27T08:22:06.136Z,1023.16
2022-11-27T08:23:06.051Z,1023.15
2022-11-27T08:24:06.076Z,1023.13
2022-11-27T08:25:06.068Z,1023.12
2022-11-27T08:26:06.038Z,1023.11
2022-11-27T08:27:06.022Z,1023.10
2022-11-27T08:28:06.154Z,1023.09
2022-11-27T08:29:05.981Z,1023.08
2022-11-27T08:30:06.005Z,1023.07
2022-11-27T08:31:05.982Z,1023.09
2022-11-27T08:32:06.075Z,1023.12
2022-11-27T08:33:06.030Z,1023.14
2022-11-27T08:34:05.972Z,1023.16
2022-11-27T08:35:05.996Z,1023.18
2022-11-27T08:36:08.193Z,1023.20
2022-11-27T08:37:05.915Z,1023.21
2022-11-27T08:38:05.955Z,1023.20
2022-11-27T08:39:05.892Z,1023.18
2022-11-27T08:40:05.891Z,1023.18
2022-11-27T08:41:05.861Z,1023.16
2022-11-27T08:42:05.889Z,1023.15
2022-11-27T08:43:05.848Z,1023.17
2022-11-27T08:44:09.289Z,1023.19
2022-11-27T08:45:05.885Z,1023.18
2022-11-27T08:46:05.856Z,1023.18
2022-11-27T08:47:05.822Z,1023.18
2022-11-27T08:48:05.794Z,1023.16
2022-11-27T08:49:05.803Z,1023.15
2022-11-27T08:50:05.768Z,1023.16
2022-11-27T08:51:05.775Z,1023.19
2022-11-27T08:52:05.748Z,1023.21
2022-11-27T08:53:05.783Z,1023.23
2022-11-27T08:54:05.731Z,1023.26
2022-11-27T08:55:05.751Z,1023.26
2022-11-27T08:56:05.734Z,1023.26
2022-11-27T08:57:05.725Z,1023.25
2022-11-27T08:58:05.681Z,1023.25
2022-11-27T08:59:05.670Z,1023.25
2022-11-27T09:00:05.658Z,1023.26
2022-11-27T09:01:05.714Z,1023.28
2022-11-27T09:02:05.670Z,1023.28
2022-11-27T09:03:05.659Z,1023.27
2022-11-27T09:04:05.713Z,1023.28
2022-11-27T09:05:05.661Z,1023.29
2022-11-27T09:06:05.612Z,1023.26
2022-11-27T09:07:05.618Z,1023.25
2022-11-27T09:08:05.585Z,1023.26
2022-11-27T09:09:05.596Z,1023.23
2022-11-27T09:10:05.620Z,1023.23
2022-11-27T09:11:05.553Z,1023.22
2022-11-27T09:12:05.582Z,1023.23
2022-11-27T09:13:05.528Z,1023.23
2022-11-27T09:14:05.565Z,1023.23
2022-11-27T09:15:05.523Z,1023.25
2022-11-27T09:16:05.580Z,1023.24
2022-11-27T09:17:05.498Z,1023.23
2022-11-27T09:18:05.492Z,1023.24
2022-11-27T09:19:05.469Z,1023.23
2022-11-27T09:20:05.542Z,1023.23
2022-11-27T09:21:05.434Z,1023.23
2022-11-27T09:22:05.438Z,1023.24
2022-11-27T09:23:08.906Z,1023.22
2022-11-27T09:24:05.410Z,1023.20
2022-11-27T09:25:05.412Z,1023.16
2022-11-27T09:26:05.405Z,1023.12
2022-11-27T09:27:05.436Z,1023.09
2022-11-27T09:28:05.384Z,1023.06
2022-11-27T09:29:05.396Z,1023.06
2022-11-27T09:30:05.362Z,1023.07
2022-11-27T09:31:05.335Z,1023.07
2022-11-27T09:32:05.409Z,1023.06
2022-11-27T09:33:05.321Z,1023.04
2022-11-27T09:34:05.316Z,1023.03
2022-11-27T09:35:05.318Z,1023.01
2022-11-27T09:36:05.362Z,1023.02
2022-11-27T09:37:05.335Z,1023.01
2022-11-27T09:38:05.291Z,1023.00
2022-11-27T09:39:05.262Z,1022.98
2022-11-27T09:40:05.281Z,1022.97
2022-11-27T09:41:05.261Z,1022.95
2022-11-27T09:42:05.289Z,1022.93
2022-11-27T09:43:05.207Z,1022.93
2022-11-27T09:44:05.232Z,1022.92
2022-11-27T09:45:05.201Z,1022.91
2022-11-27T09:46:05.256Z,1022.92
2022-11-27T09:47:05.227Z,1022.91
2022-11-27T09:48:05.171Z,1022.88
2022-11-27T09:49:05.140Z,1022.87
2022-11-27T09:50:05.159Z,1022.85
2022-11-27T09:51:05.122Z,1022.82
2022-11-27T09:52:05.161Z,1022.80
2022-11-27T09:53:05.107Z,1022.79
2022-11-27T09:54:05.121Z,1022.79
2022-11-27T09:55:05.125Z,1022.77
2022-11-27T09:56:05.105Z,1022.77
2022-11-27T09:57:05.127Z,1022.77
2022-11-27T09:58:05.061Z,1022.77
2022-11-27T09:59:05.066Z,1022.77
2022-11-27T10:00:05.080Z,1022.76
2022-11-27T10:01:05.131Z,1022.73
2022-11-27T10:02:05.161Z,1022.73
2022-11-27T10:03:05.126Z,1022.71
2022-11-27T10:04:05.002Z,1022.70
2022-11-27T10:05:13.713Z,1022.69
2022-11-27T10:06:04.996Z,1022.70
2022-11-27T10:07:05.002Z,1022.66
2022-11-27T10:08:07.118Z,1022.68
2022-11-27T10:09:04.970Z,1022.66
2022-11-27T10:10:04.939Z,1022.67
2022-11-27T10:11:04.928Z,1022.65
2022-11-27T10:12:04.930Z,1022.66
2022-11-27T10:13:04.894Z,1022.67
2022-11-27T10:14:04.904Z,1022.67
2022-11-27T10:15:04.890Z,1022.68
2022-11-27T10:16:04.913Z,1022.68
2022-11-27T10:17:04.928Z,1022.69
2022-11-27T10:18:04.849Z,1022.67
2022-11-27T10:19:04.847Z,1022.66
2022-11-27T10:20:04.838Z,1022.66
2022-11-27T10:21:04.807Z,1022.66
2022-11-27T10:22:04.875Z,1022.63
2022-11-27T10:23:04.801Z,1022.63
2022-11-27T10:24:04.790Z,1022.61
2022-11-27T10:25:04.789Z,1022.62
2022-11-27T10:26:04.861Z,1022.62
2022-11-27T10:27:04.822Z,1022.64
2022-11-27T10:28:04.749Z,1022.62
2022-11-27T10:29:04.721Z,1022.63
2022-11-27T10:30:04.720Z,1022.63
2022-11-27T10:31:04.700Z,1022.64
2022-11-27T10:32:04.788Z,1022.63
2022-11-27T10:33:04.842Z,1022.63
2022-11-27T10:34:04.678Z,1022.63
2022-11-27T10:35:04.679Z,1022.61
2022-11-27T10:36:04.681Z,1022.59
2022-11-27T10:37:04.670Z,1022.56
2022-11-27T10:38:07.086Z,1022.57
2022-11-27T10:39:04.686Z,1022.55
2022-11-27T10:40:04.614Z,1022.53
2022-11-27T10:41:04.605Z,1022.53
2022-11-27T10:42:04.650Z,1022.54
2022-11-27T10:43:04.592Z,1022.55
2022-11-27T10:44:04.588Z,1022.52
2022-11-27T10:45:04.564Z,1022.54
2022-11-27T10:46:04.615Z,1022.54
2022-11-27T10:47:04.556Z,1022.52
2022-11-27T10:48:04.617Z,1022.52
2022-11-27T10:49:04.541Z,1022.48
2022-11-27T10:50:04.552Z,1022.43
2022-11-27T10:51:04.494Z,1022.42
2022-11-27T10:52:04.534Z,1022.39
2022-11-27T10:53:04.478Z,1022.40
2022-11-27T10:54:04.474Z,1022.40
2022-11-27T10:55:04.549Z,1022.41
2022-11-27T10:56:04.456Z,1022.40
2022-11-27T10:57:04.461Z,1022.40
2022-11-27T10:58:04.511Z,1022.39
2022-11-27T10:59:04.454Z,1022.39
2022-11-27T11:00:04.412Z,1022.38
2022-11-27T11:01:04.496Z,1022.37
2022-11-27T11:02:04.461Z,1022.38
2022-11-27T11:03:04.390Z,1022.38
2022-11-27T11:04:24.226Z,1022.39
2022-11-27T11:05:31.187Z,1022.37
2022-11-27T11:06:19.792Z,1022.36
2022-11-27T11:07:04.333Z,1022.34
2022-11-27T11:08:04.481Z,1022.31
2022-11-27T11:09:04.330Z,1022.31
2022-11-27T11:10:04.322Z,1022.29
2022-11-27T11:11:04.303Z,1022.28
2022-11-27T11:12:04.277Z,1022.28
2022-11-27T11:13:04.290Z,1022.26
2022-11-27T11:14:04.285Z,1022.26
2022-11-27T11:15:04.265Z,1022.22
2022-11-27T11:16:04.313Z,1022.19
2022-11-27T11:17:04.324Z,1022.16
2022-11-27T11:18:04.228Z,1022.14
2022-11-27T11:19:04.211Z,1022.18
2022-11-27T11:20:04.231Z,1022.15
2022-11-27T11:21:04.199Z,1022.17
2022-11-27T11:22:04.215Z,1022.18
2022-11-27T11:23:04.181Z,1022.20
2022-11-27T11:24:04.179Z,1022.25
2022-11-27T11:25:04.142Z,1022.28
2022-11-27T11:26:04.224Z,1022.31
2022-11-27T11:27:04.122Z,1022.31
2022-11-27T11:28:04.180Z,1022.31
2022-11-27T11:29:04.125Z,1022.30
2022-11-27T11:30:04.099Z,1022.28
2022-11-27T11:31:04.092Z,1022.27
2022-11-27T11:32:04.092Z,1022.24
2022-11-27T11:33:04.096Z,1022.21
2022-11-27T11:34:04.046Z,1022.21
2022-11-27T11:35:04.042Z,1022.21
2022-11-27T11:36:04.029Z,1022.23
2022-11-27T11:37:04.012Z,1022.23
2022-11-27T11:38:04.054Z,1022.24
2022-11-27T11:39:04.004Z,1022.22
2022-11-27T11:40:03.995Z,1022.22
2022-11-27T11:41:03.991Z,1022.20
2022-11-27T11:42:03.969Z,1022.17
2022-11-27T11:43:03.976Z,1022.15
2022-11-27T11:44:03.953Z,1022.14
2022-11-27T11:45:03.944Z,1022.13
2022-11-27T11:46:03.977Z,1022.12
2022-11-27T11:47:03.946Z,1022.11
2022-11-27T11:48:09.966Z,1022.11
2022-11-27T11:49:03.894Z,1022.11
2022-11-27T11:50:03.886Z,1022.11
2022-11-27T11:51:04.535Z,1022.09
2022-11-27T11:52:03.863Z,1022.09
2022-11-27T11:53:03.888Z,1022.10
2022-11-27T11:54:03.842Z,1022.08
2022-11-27T11:55:03.864Z,1022.12
2022-11-27T11:56:03.887Z,1022.10
2022-11-27T11:57:03.820Z,1022.09
2022-11-27T11:58:03.815Z,1022.09
2022-11-27T11:59:03.784Z,1022.09
2022-11-27T12:00:03.793Z,1022.09
2022-11-27T12:01:25.841Z,1022.11
2022-11-27T12:02:03.837Z,1022.09
2022-11-27T12:03:03.748Z,1022.08
2022-11-27T12:04:03.765Z,1022.08
2022-11-27T12:05:03.746Z,1022.08
2022-11-27T12:06:03.723Z,1022.08
2022-11-27T12:07:03.715Z,1022.07
2022-11-27T12:08:03.785Z,1022.05